Plantersville, Texas
Current Conditions -  °F | °C
As of 11:53 PM on Monday 26 Jan 2015 (Local Time) from KDWH Reporting Station
Clear Clear  
Wind Chill: 53°   Ceiling: Unl
Heat Index: 53°   Visibility: 10mi
Dew Point: 43°   Wind: 3mph
Humidity: 69%   Direction: 230°SW
Pressure: 30.15"   Gusts: NA
Location:  30.33°N, 95.86°W
Report Text: KDWH 270553Z 23003KT 10SM CLR 12/06 A3015 RMK AO2 SLP207 T01170061 10150 20094 401940039 58004
Loading
Personal Weather Stations






























Interactive Weather Map New forecast layout! Learn more

10-Day Weather Forecast

Advertisements
Track Severe Weather on mobile